createdAt,value
2017-05-27T00:00:47.188Z,997.48
2017-05-27T00:01:48.570Z,997.46
2017-05-27T00:02:49.961Z,997.47
2017-05-27T00:03:51.341Z,997.49
2017-05-27T00:04:52.775Z,997.46
2017-05-27T00:05:54.166Z,997.48
2017-05-27T00:06:55.674Z,997.47
2017-05-27T00:07:57.066Z,997.51
2017-05-27T00:08:58.499Z,997.50
2017-05-27T00:09:59.946Z,997.54
2017-05-27T00:11:01.548Z,997.58
2017-05-27T00:12:02.926Z,997.52
2017-05-27T00:13:04.290Z,997.52
2017-05-27T00:14:05.730Z,997.54
2017-05-27T00:15:07.123Z,997.57
2017-05-27T00:16:08.564Z,997.55
2017-05-27T00:17:09.978Z,997.58
2017-05-27T00:18:11.376Z,997.58
2017-05-27T00:19:12.814Z,997.55
2017-05-27T00:20:14.218Z,997.55
2017-05-27T00:21:15.652Z,997.54
2017-05-27T00:22:17.020Z,997.53
2017-05-27T00:23:18.412Z,997.53
2017-05-27T00:24:19.788Z,997.57
2017-05-27T00:25:21.224Z,997.58
2017-05-27T00:26:22.729Z,997.57
2017-05-27T00:27:24.230Z,997.60
2017-05-27T00:28:25.596Z,997.58
2017-05-27T00:29:26.968Z,997.56
2017-05-27T00:30:28.344Z,997.58
2017-05-27T00:31:29.747Z,997.58
2017-05-27T00:32:31.119Z,997.59
2017-05-27T00:33:33.078Z,997.61
2017-05-27T00:34:34.521Z,997.59
2017-05-27T00:35:36.013Z,997.61
2017-05-27T00:36:37.383Z,997.62
2017-05-27T00:37:38.762Z,997.63
2017-05-27T00:38:40.127Z,997.64
2017-05-27T00:39:41.489Z,997.64
2017-05-27T00:40:43.629Z,997.65
2017-05-27T00:41:45.069Z,997.62
2017-05-27T00:42:46.437Z,997.64
2017-05-27T00:43:47.807Z,997.61
2017-05-27T00:44:49.174Z,997.63
2017-05-27T00:45:50.606Z,997.64
2017-05-27T00:46:51.998Z,997.64
2017-05-27T00:47:54.083Z,997.65
2017-05-27T00:48:55.508Z,997.64
2017-05-27T00:49:57.632Z,997.67
2017-05-27T00:50:59.070Z,997.64
2017-05-27T00:52:00.503Z,997.65
2017-05-27T00:53:01.989Z,997.61
2017-05-27T00:54:03.502Z,997.64
2017-05-27T00:55:04.969Z,997.63
2017-05-27T00:56:06.327Z,997.67
2017-05-27T00:57:07.751Z,997.64
2017-05-27T00:58:09.135Z,997.65
2017-05-27T00:59:10.508Z,997.66
2017-05-27T01:00:11.889Z,997.66
2017-05-27T01:01:13.323Z,997.65
2017-05-27T01:02:14.701Z,997.66
2017-05-27T01:03:16.662Z,997.67
2017-05-27T01:04:18.076Z,997.63
2017-05-27T01:05:19.496Z,997.63
2017-05-27T01:06:20.984Z,997.60
2017-05-27T01:07:22.379Z,997.61
2017-05-27T01:08:23.795Z,997.61
2017-05-27T01:09:25.215Z,997.61
2017-05-27T01:10:26.646Z,997.61
2017-05-27T01:11:28.148Z,997.54
2017-05-27T01:12:29.547Z,997.58
2017-05-27T01:13:30.972Z,997.61
2017-05-27T01:14:32.366Z,997.58
2017-05-27T01:15:33.733Z,997.59
2017-05-27T01:16:35.100Z,997.63
2017-05-27T01:17:36.467Z,997.61
2017-05-27T01:18:37.845Z,997.61
2017-05-27T01:19:39.267Z,997.58
2017-05-27T01:20:40.659Z,997.59
2017-05-27T01:21:42.024Z,997.60
2017-05-27T01:22:43.402Z,997.58
2017-05-27T01:23:44.787Z,997.62
2017-05-27T01:24:46.192Z,997.60
2017-05-27T01:25:47.558Z,997.63
2017-05-27T01:26:48.933Z,997.64
2017-05-27T01:27:51.082Z,997.64
2017-05-27T01:28:52.451Z,997.64
2017-05-27T01:29:53.825Z,997.63
2017-05-27T01:30:55.234Z,997.61
2017-05-27T01:31:56.598Z,997.62
2017-05-27T01:32:57.968Z,997.57
2017-05-27T01:33:59.336Z,997.63
2017-05-27T01:35:00.895Z,997.60
2017-05-27T01:36:02.267Z,997.62
2017-05-27T01:37:03.630Z,997.59
2017-05-27T01:38:05.002Z,997.61
2017-05-27T01:39:06.468Z,997.58
2017-05-27T01:40:07.832Z,997.59
2017-05-27T01:41:09.200Z,997.61
2017-05-27T01:42:10.564Z,997.60
2017-05-27T01:43:12.018Z,997.64
2017-05-27T01:44:13.414Z,997.61
2017-05-27T01:45:14.760Z,997.67
2017-05-27T01:46:16.130Z,997.64
2017-05-27T01:47:17.593Z,997.65
2017-05-27T01:48:18.963Z,997.68
2017-05-27T01:49:20.351Z,997.70
2017-05-27T01:50:21.720Z,997.69
2017-05-27T01:51:23.186Z,997.70
2017-05-27T01:52:24.548Z,997.70
2017-05-27T01:53:25.920Z,997.70
2017-05-27T01:54:27.313Z,997.71
2017-05-27T01:55:28.755Z,997.73
2017-05-27T01:56:30.122Z,997.72
2017-05-27T01:57:31.494Z,997.70
2017-05-27T01:58:32.992Z,997.73
2017-05-27T01:59:34.387Z,997.69
2017-05-27T02:00:35.742Z,997.70
2017-05-27T02:01:37.141Z,997.67
2017-05-27T02:02:38.521Z,997.71
2017-05-27T02:03:39.971Z,997.67
2017-05-27T02:04:41.350Z,997.66
2017-05-27T02:05:42.748Z,997.68
2017-05-27T02:06:44.170Z,997.67
2017-05-27T02:07:45.764Z,997.68
2017-05-27T02:08:47.132Z,997.67
2017-05-27T02:09:48.502Z,997.74
2017-05-27T02:10:49.880Z,997.71
2017-05-27T02:11:51.332Z,997.70
2017-05-27T02:12:52.703Z,997.71
2017-05-27T02:13:54.071Z,997.70
2017-05-27T02:14:55.566Z,997.71
2017-05-27T02:15:56.978Z,997.73
2017-05-27T02:16:58.381Z,997.74
2017-05-27T02:17:59.779Z,997.76
2017-05-27T02:19:01.213Z,997.78
2017-05-27T02:20:02.594Z,997.78
2017-05-27T02:21:03.954Z,997.77
2017-05-27T02:22:05.338Z,997.78
2017-05-27T02:23:06.704Z,997.77
2017-05-27T02:24:08.130Z,997.76
2017-05-27T02:25:09.489Z,997.75
2017-05-27T02:26:10.876Z,997.75
2017-05-27T02:27:12.231Z,997.75
2017-05-27T02:28:13.656Z,997.77
2017-05-27T02:29:15.620Z,997.73
2017-05-27T02:30:16.992Z,997.78
2017-05-27T02:31:18.378Z,997.81
2017-05-27T02:32:19.756Z,997.77
2017-05-27T02:33:21.126Z,997.82
2017-05-27T02:34:22.499Z,997.82
2017-05-27T02:35:23.899Z,997.81
2017-05-27T02:36:25.366Z,997.81
2017-05-27T02:37:26.729Z,997.83
2017-05-27T02:38:28.111Z,997.85
2017-05-27T02:39:29.626Z,997.79
2017-05-27T02:40:31.670Z,997.79
2017-05-27T02:41:33.044Z,997.80
2017-05-27T02:42:34.411Z,997.82
2017-05-27T02:43:35.818Z,997.83
2017-05-27T02:44:37.174Z,997.82
2017-05-27T02:45:38.554Z,997.82
2017-05-27T02:46:39.925Z,997.82
2017-05-27T02:47:41.305Z,997.85
2017-05-27T02:48:42.678Z,997.82
2017-05-27T02:49:44.082Z,997.83
2017-05-27T02:50:45.491Z,997.83
2017-05-27T02:51:46.850Z,997.84
2017-05-27T02:52:48.297Z,997.84
2017-05-27T02:53:49.678Z,997.83
2017-05-27T02:54:51.608Z,997.85
2017-05-27T02:55:53.227Z,997.86
2017-05-27T02:56:55.108Z,997.85
2017-05-27T02:57:56.722Z,997.87
2017-05-27T02:58:58.092Z,997.87
2017-05-27T02:59:59.461Z,997.89
2017-05-27T03:01:00.849Z,997.91
2017-05-27T03:02:02.375Z,997.92
2017-05-27T03:03:03.733Z,997.94
2017-05-27T03:04:05.351Z,997.94
2017-05-27T03:05:06.773Z,997.93
2017-05-27T03:06:08.237Z,997.94
2017-05-27T03:07:10.603Z,997.92
2017-05-27T03:08:11.968Z,997.93
2017-05-27T03:09:13.355Z,997.96
2017-05-27T03:10:14.711Z,997.96
2017-05-27T03:11:16.082Z,997.96
2017-05-27T03:12:19.106Z,997.98
2017-05-27T03:13:20.440Z,997.97
2017-05-27T03:14:21.807Z,997.99
2017-05-27T03:15:23.193Z,998.04
2017-05-27T03:16:24.570Z,998.00
2017-05-27T03:17:25.941Z,997.99
2017-05-27T03:18:27.315Z,998.02
2017-05-27T03:19:28.738Z,998.00
2017-05-27T03:20:30.113Z,997.98
2017-05-27T03:21:31.504Z,997.97
2017-05-27T03:22:32.871Z,997.98
2017-05-27T03:23:34.323Z,997.98
2017-05-27T03:24:35.712Z,998.02
2017-05-27T03:25:37.080Z,998.02
2017-05-27T03:26:38.467Z,998.03
2017-05-27T03:27:39.848Z,998.04
2017-05-27T03:28:41.216Z,998.11
2017-05-27T03:29:42.602Z,998.07
2017-05-27T03:30:43.994Z,998.09
2017-05-27T03:31:45.393Z,998.05
2017-05-27T03:32:46.809Z,998.12
2017-05-27T03:33:48.179Z,998.12
2017-05-27T03:34:49.581Z,998.09
2017-05-27T03:35:50.995Z,998.08
2017-05-27T03:36:52.432Z,998.12
2017-05-27T03:37:53.815Z,998.07
2017-05-27T03:38:55.180Z,998.12
2017-05-27T03:39:56.590Z,998.11
2017-05-27T03:40:57.967Z,998.11
2017-05-27T03:41:59.344Z,998.11
2017-05-27T03:43:00.731Z,998.14
2017-05-27T03:44:02.176Z,998.16
2017-05-27T03:45:03.604Z,998.20
2017-05-27T03:46:04.987Z,998.16
2017-05-27T03:47:06.365Z,998.14
2017-05-27T03:48:07.927Z,998.14
2017-05-27T03:49:09.329Z,998.12
2017-05-27T03:50:10.687Z,998.17
2017-05-27T03:51:12.081Z,998.16
2017-05-27T03:52:13.517Z,998.17
2017-05-27T03:53:14.887Z,998.16
2017-05-27T03:54:16.278Z,998.15
2017-05-27T03:55:17.658Z,998.13
2017-05-27T03:56:19.131Z,998.15
2017-05-27T03:57:20.524Z,998.15
2017-05-27T03:58:21.899Z,998.16
2017-05-27T03:59:23.263Z,998.17
2017-05-27T04:00:24.694Z,998.17
2017-05-27T04:01:26.077Z,998.20
2017-05-27T04:02:27.448Z,998.20
2017-05-27T04:03:28.919Z,998.22
2017-05-27T04:04:30.331Z,998.23
2017-05-27T04:05:32.605Z,998.22
2017-05-27T04:06:33.985Z,998.22
2017-05-27T04:07:35.399Z,998.25
2017-05-27T04:08:36.766Z,998.21
2017-05-27T04:09:38.139Z,998.22
2017-05-27T04:10:39.517Z,998.26
2017-05-27T04:11:40.882Z,998.24
2017-05-27T04:12:42.252Z,998.25
2017-05-27T04:13:43.663Z,998.27
2017-05-27T04:14:45.611Z,998.30
2017-05-27T04:15:46.990Z,998.29
2017-05-27T04:16:48.368Z,998.33
2017-05-27T04:17:49.750Z,998.32
2017-05-27T04:18:51.118Z,998.32
2017-05-27T04:19:52.527Z,998.34
2017-05-27T04:20:53.886Z,998.35
2017-05-27T04:21:55.275Z,998.34
2017-05-27T04:22:56.648Z,998.33
2017-05-27T04:23:58.018Z,998.32
2017-05-27T04:24:59.381Z,998.31
2017-05-27T04:26:00.763Z,998.38
2017-05-27T04:27:02.138Z,998.38
2017-05-27T04:28:03.511Z,998.39
2017-05-27T04:29:04.878Z,998.39
2017-05-27T04:30:06.247Z,998.42
2017-05-27T04:31:07.637Z,998.42
2017-05-27T04:32:09.016Z,998.38
2017-05-27T04:33:10.401Z,998.42
2017-05-27T04:34:11.779Z,998.42
2017-05-27T04:35:13.159Z,998.38
2017-05-27T04:36:14.530Z,998.42
2017-05-27T04:37:15.920Z,998.43
2017-05-27T04:38:17.287Z,998.45
2017-05-27T04:39:18.655Z,998.45
2017-05-27T04:40:20.053Z,998.43
2017-05-27T04:41:21.426Z,998.45
2017-05-27T04:42:22.802Z,998.45
2017-05-27T04:43:24.167Z,998.42
2017-05-27T04:44:25.532Z,998.45
2017-05-27T04:45:26.899Z,998.47
2017-05-27T04:46:28.271Z,998.45
2017-05-27T04:47:29.640Z,998.45
2017-05-27T04:48:31.011Z,998.47
2017-05-27T04:49:32.383Z,998.45
2017-05-27T04:50:33.753Z,998.46
2017-05-27T04:51:35.146Z,998.43
2017-05-27T04:52:36.528Z,998.42
2017-05-27T04:53:37.897Z,998.43
2017-05-27T04:54:39.271Z,998.46
2017-05-27T04:55:40.638Z,998.44
2017-05-27T04:56:42.039Z,998.47
2017-05-27T04:57:43.418Z,998.46
2017-05-27T04:58:44.790Z,998.44
2017-05-27T04:59:46.166Z,998.49
2017-05-27T05:00:47.534Z,998.48
2017-05-27T05:01:48.919Z,998.52
2017-05-27T05:02:50.290Z,998.49
2017-05-27T05:03:51.679Z,998.52
2017-05-27T05:04:53.058Z,998.54
2017-05-27T05:05:54.421Z,998.56
2017-05-27T05:06:55.840Z,998.54
2017-05-27T05:07:57.210Z,998.53
2017-05-27T05:08:58.579Z,998.55
2017-05-27T05:09:59.953Z,998.53
2017-05-27T05:11:01.334Z,998.54
2017-05-27T05:12:02.774Z,998.55
2017-05-27T05:13:04.133Z,998.56
2017-05-27T05:14:05.516Z,998.58
2017-05-27T05:15:06.892Z,998.57
2017-05-27T05:16:08.268Z,998.58
2017-05-27T05:17:09.631Z,998.60
2017-05-27T05:18:11.005Z,998.55
2017-05-27T05:19:12.385Z,998.60
2017-05-27T05:20:13.777Z,998.59
2017-05-27T05:21:15.142Z,998.60
2017-05-27T05:22:16.542Z,998.62
2017-05-27T05:23:17.899Z,998.61
2017-05-27T05:24:19.265Z,998.67
2017-05-27T05:25:20.652Z,998.69
2017-05-27T05:26:22.028Z,998.67
2017-05-27T05:27:23.399Z,998.70
2017-05-27T05:28:24.769Z,998.70
2017-05-27T05:29:26.144Z,998.76
2017-05-27T05:30:27.518Z,998.70
2017-05-27T05:31:28.889Z,998.74
2017-05-27T05:32:30.270Z,998.72
2017-05-27T05:33:31.646Z,998.78
2017-05-27T05:34:33.022Z,998.75
2017-05-27T05:35:34.390Z,998.73
2017-05-27T05:36:36.656Z,998.72
2017-05-27T05:37:38.028Z,998.76
2017-05-27T05:38:39.399Z,998.75
2017-05-27T05:39:40.782Z,998.76
2017-05-27T05:40:42.149Z,998.77
2017-05-27T05:41:43.515Z,998.79
2017-05-27T05:42:44.894Z,998.82
2017-05-27T05:43:46.264Z,998.82
2017-05-27T05:44:47.647Z,998.86
2017-05-27T05:45:49.017Z,998.90
2017-05-27T05:46:50.389Z,998.91
2017-05-27T05:47:51.754Z,998.94
2017-05-27T05:48:53.134Z,998.95
2017-05-27T05:49:54.502Z,998.93
2017-05-27T05:50:55.874Z,998.94
2017-05-27T05:51:57.252Z,998.99
2017-05-27T05:52:58.620Z,999.05
2017-05-27T05:53:59.994Z,999.02
2017-05-27T05:55:01.375Z,999.05
2017-05-27T05:56:05.624Z,999.07
2017-05-27T05:57:07.021Z,999.05
2017-05-27T05:58:08.392Z,999.01
2017-05-27T05:59:09.765Z,999.04
2017-05-27T06:00:11.142Z,999.03
2017-05-27T06:01:12.580Z,999.06
2017-05-27T06:02:13.943Z,999.08
2017-05-27T06:03:15.312Z,999.06
2017-05-27T06:04:17.260Z,999.07
2017-05-27T06:05:18.628Z,999.08
2017-05-27T06:06:20.010Z,999.11
2017-05-27T06:07:21.442Z,999.09
2017-05-27T06:08:22.812Z,999.10
2017-05-27T06:09:24.235Z,999.11
2017-05-27T06:10:25.599Z,999.10
2017-05-27T06:11:26.972Z,999.13
2017-05-27T06:12:28.340Z,999.14
2017-05-27T06:13:29.714Z,999.13
2017-05-27T06:14:31.078Z,999.18
2017-05-27T06:15:32.452Z,999.17
2017-05-27T06:16:33.828Z,999.20
2017-05-27T06:17:35.213Z,999.22
2017-05-27T06:18:36.585Z,999.19
2017-05-27T06:19:37.952Z,999.19
2017-05-27T06:20:39.327Z,999.21
2017-05-27T06:21:40.698Z,999.20
2017-05-27T06:22:42.068Z,999.20
2017-05-27T06:23:43.445Z,999.23
2017-05-27T06:24:44.809Z,999.25
2017-05-27T06:25:46.187Z,999.24
2017-05-27T06:26:47.560Z,999.27
2017-05-27T06:27:48.930Z,999.29
2017-05-27T06:28:50.308Z,999.30
2017-05-27T06:29:52.737Z,999.27
2017-05-27T06:30:54.109Z,999.32
2017-05-27T06:31:55.485Z,999.33
2017-05-27T06:32:56.863Z,999.37
2017-05-27T06:33:58.229Z,999.33
2017-05-27T06:34:59.617Z,999.35
2017-05-27T06:36:00.981Z,999.30
2017-05-27T06:37:02.354Z,999.37
2017-05-27T06:38:03.807Z,999.35
2017-05-27T06:39:05.180Z,999.36
2017-05-27T06:40:06.564Z,999.36
2017-05-27T06:41:07.941Z,999.42
2017-05-27T06:42:09.324Z,999.39
2017-05-27T06:43:10.751Z,999.39
2017-05-27T06:44:12.151Z,999.38
2017-05-27T06:45:13.445Z,999.38
2017-05-27T06:46:14.814Z,999.35
2017-05-27T06:47:16.195Z,999.35
2017-05-27T06:48:17.575Z,999.40
2017-05-27T06:49:19.124Z,999.43
2017-05-27T06:50:20.689Z,999.41
2017-05-27T06:51:22.151Z,999.43
2017-05-27T06:52:23.532Z,999.45
2017-05-27T06:53:24.928Z,999.41
2017-05-27T06:54:26.292Z,999.43
2017-05-27T06:55:27.667Z,999.41
2017-05-27T06:56:29.035Z,999.41
2017-05-27T06:57:30.407Z,999.44
2017-05-27T06:58:31.779Z,999.39
2017-05-27T06:59:33.154Z,999.42
2017-05-27T07:00:34.534Z,999.41
2017-05-27T07:01:35.904Z,999.38
2017-05-27T07:02:37.281Z,999.41
2017-05-27T07:03:38.642Z,999.44
2017-05-27T07:04:40.058Z,999.42
2017-05-27T07:05:41.487Z,999.39
2017-05-27T07:06:42.861Z,999.37
2017-05-27T07:07:44.233Z,999.43
2017-05-27T07:08:45.614Z,999.42
2017-05-27T07:09:46.992Z,999.45
2017-05-27T07:10:48.387Z,999.44
2017-05-27T07:11:49.758Z,999.42
2017-05-27T07:12:51.125Z,999.49
2017-05-27T07:13:52.501Z,999.48
2017-05-27T07:14:53.888Z,999.51
2017-05-27T07:15:55.269Z,999.44
2017-05-27T07:16:56.659Z,999.49
2017-05-27T07:17:58.031Z,999.44
2017-05-27T07:18:59.398Z,999.44
2017-05-27T07:20:00.772Z,999.42
2017-05-27T07:21:02.146Z,999.49
2017-05-27T07:22:03.521Z,999.42
2017-05-27T07:23:04.896Z,999.50
2017-05-27T07:24:06.262Z,999.51
2017-05-27T07:25:07.643Z,999.52
2017-05-27T07:26:09.078Z,999.51
2017-05-27T07:27:10.592Z,999.52
2017-05-27T07:28:11.968Z,999.54
2017-05-27T07:29:13.337Z,999.52
2017-05-27T07:30:14.706Z,999.55
2017-05-27T07:31:16.087Z,999.56
2017-05-27T07:32:17.536Z,999.54
2017-05-27T07:33:18.916Z,999.56
2017-05-27T07:34:20.290Z,999.61
2017-05-27T07:35:21.660Z,999.56
2017-05-27T07:36:23.031Z,999.56
2017-05-27T07:37:24.405Z,999.61
2017-05-27T07:38:25.858Z,999.63
2017-05-27T07:39:27.223Z,999.63
2017-05-27T07:40:28.635Z,999.60
2017-05-27T07:41:30.021Z,999.62
2017-05-27T07:42:31.393Z,999.62
2017-05-27T07:43:32.781Z,999.65
2017-05-27T07:44:34.147Z,999.64
2017-05-27T07:45:35.516Z,999.63
2017-05-27T07:46:36.886Z,999.60
2017-05-27T07:47:38.271Z,999.60
2017-05-27T07:48:39.632Z,999.61
2017-05-27T07:49:41.056Z,999.67
2017-05-27T07:50:42.424Z,999.71
2017-05-27T07:51:43.801Z,999.73
2017-05-27T07:52:45.163Z,999.68
2017-05-27T07:53:46.549Z,999.75
2017-05-27T07:54:47.934Z,999.73
2017-05-27T07:55:49.316Z,999.76
2017-05-27T07:56:50.727Z,999.74
2017-05-27T07:57:52.108Z,999.75
2017-05-27T07:58:53.486Z,999.73
2017-05-27T07:59:54.859Z,999.74
2017-05-27T08:00:56.232Z,999.73
2017-05-27T08:01:57.605Z,999.72
2017-05-27T08:02:58.984Z,999.77
2017-05-27T08:04:00.365Z,999.76
2017-05-27T08:05:01.740Z,999.71
2017-05-27T08:06:03.143Z,999.74
2017-05-27T08:07:04.522Z,999.71
2017-05-27T08:08:05.891Z,999.75
2017-05-27T08:09:07.266Z,999.73
2017-05-27T08:10:08.636Z,999.73
2017-05-27T08:11:10.021Z,999.73
2017-05-27T08:12:11.399Z,999.77
2017-05-27T08:13:12.785Z,999.79
2017-05-27T08:14:14.159Z,999.76
2017-05-27T08:15:15.540Z,999.79
2017-05-27T08:16:16.919Z,999.71
2017-05-27T08:17:18.292Z,999.77
2017-05-27T08:18:19.673Z,999.72
2017-05-27T08:19:21.059Z,999.70
2017-05-27T08:20:22.435Z,999.67
2017-05-27T08:21:23.811Z,999.70
2017-05-27T08:22:25.191Z,999.69
2017-05-27T08:23:26.567Z,999.71
2017-05-27T08:24:27.974Z,999.71
2017-05-27T08:25:29.340Z,999.67
2017-05-27T08:26:30.714Z,999.73
2017-05-27T08:27:32.094Z,999.76
2017-05-27T08:28:33.472Z,999.78
2017-05-27T08:29:34.845Z,999.73
2017-05-27T08:30:36.219Z,999.73
2017-05-27T08:31:37.583Z,999.80
2017-05-27T08:32:38.955Z,999.77
2017-05-27T08:33:40.325Z,999.73
2017-05-27T08:34:41.694Z,999.75
2017-05-27T08:35:43.068Z,999.71
2017-05-27T08:36:44.438Z,999.73
2017-05-27T08:37:45.814Z,999.76
2017-05-27T08:38:47.191Z,999.74
2017-05-27T08:39:48.554Z,999.71
2017-05-27T08:40:49.928Z,999.74
2017-05-27T08:41:51.311Z,999.78
2017-05-27T08:42:52.691Z,999.72
2017-05-27T08:43:54.071Z,999.66
2017-05-27T08:44:55.448Z,999.72
2017-05-27T08:45:56.835Z,999.71
2017-05-27T08:46:58.231Z,999.78
2017-05-27T08:47:59.611Z,999.72
2017-05-27T08:49:01.000Z,999.71
2017-05-27T08:50:02.382Z,999.70
2017-05-27T08:51:03.793Z,999.68
2017-05-27T08:52:05.192Z,999.66
2017-05-27T08:53:06.595Z,999.70
2017-05-27T08:54:07.997Z,999.75
2017-05-27T08:55:09.379Z,999.69
2017-05-27T08:56:10.778Z,999.68
2017-05-27T08:57:12.200Z,999.69
2017-05-27T08:58:13.624Z,999.73
2017-05-27T08:59:15.030Z,999.69
2017-05-27T09:00:16.455Z,999.73
2017-05-27T09:01:17.854Z,999.70
2017-05-27T09:02:19.228Z,999.71
2017-05-27T09:03:20.610Z,999.72
2017-05-27T09:04:22.072Z,999.71
2017-05-27T09:05:23.452Z,999.78
2017-05-27T09:06:24.859Z,999.71
2017-05-27T09:07:26.335Z,999.76
2017-05-27T09:08:27.711Z,999.74
2017-05-27T09:09:29.052Z,999.79
2017-05-27T09:10:30.432Z,999.78
2017-05-27T09:11:31.820Z,999.80
2017-05-27T09:12:33.189Z,999.74
2017-05-27T09:13:34.580Z,999.80
2017-05-27T09:14:35.955Z,999.75
2017-05-27T09:15:37.345Z,999.78
2017-05-27T09:16:38.796Z,999.80
2017-05-27T09:17:40.164Z,999.81
2017-05-27T09:18:41.677Z,999.79
2017-05-27T09:19:43.093Z,999.82
2017-05-27T09:20:44.526Z,999.81
2017-05-27T09:21:45.932Z,999.81
2017-05-27T09:22:47.304Z,999.78
2017-05-27T09:23:48.674Z,999.69
2017-05-27T09:24:50.055Z,999.79
2017-05-27T09:25:51.437Z,999.83
2017-05-27T09:26:52.814Z,999.76
2017-05-27T09:27:54.193Z,999.73
2017-05-27T09:28:55.562Z,999.72
2017-05-27T09:29:56.932Z,999.71
2017-05-27T09:30:58.333Z,999.67
2017-05-27T09:31:59.728Z,999.67
2017-05-27T09:33:01.141Z,999.70
2017-05-27T09:34:02.526Z,999.61
2017-05-27T09:35:03.911Z,999.63
2017-05-27T09:36:05.429Z,999.61
2017-05-27T09:37:06.808Z,999.56
2017-05-27T09:38:08.330Z,999.62
2017-05-27T09:39:09.690Z,999.57
2017-05-27T09:40:11.082Z,999.57
2017-05-27T09:41:12.467Z,999.61
2017-05-27T09:42:13.889Z,999.62
2017-05-27T09:43:15.297Z,999.59
2017-05-27T09:44:16.672Z,999.68
2017-05-27T09:45:18.054Z,999.66
2017-05-27T09:46:19.447Z,999.72
2017-05-27T09:47:20.931Z,999.63
2017-05-27T09:48:22.873Z,999.69
2017-05-27T09:49:24.287Z,999.66
2017-05-27T09:50:25.708Z,999.66
2017-05-27T09:51:27.102Z,999.64
2017-05-27T09:52:28.497Z,999.62
2017-05-27T09:53:29.995Z,999.64
2017-05-27T09:54:32.183Z,999.64
2017-05-27T09:55:33.662Z,999.57
2017-05-27T09:56:35.039Z,999.62
2017-05-27T09:57:36.448Z,999.64
2017-05-27T09:58:38.442Z,999.65
2017-05-27T09:59:39.837Z,999.68
2017-05-27T10:00:41.208Z,999.67
2017-05-27T10:01:42.610Z,999.67
2017-05-27T10:02:44.018Z,999.63
2017-05-27T10:03:45.375Z,999.67
2017-05-27T10:04:46.754Z,999.59
2017-05-27T10:05:48.161Z,999.69
2017-05-27T10:06:49.540Z,999.57
2017-05-27T10:07:51.682Z,999.64
2017-05-27T10:08:53.083Z,999.73
2017-05-27T10:09:54.467Z,999.75
2017-05-27T10:10:55.857Z,999.66
2017-05-27T10:11:57.246Z,999.74
2017-05-27T10:12:58.626Z,999.68
2017-05-27T10:14:00.001Z,999.62
2017-05-27T10:15:01.399Z,999.64
2017-05-27T10:16:03.688Z,999.63
2017-05-27T10:17:05.137Z,999.64
2017-05-27T10:18:06.568Z,999.67
2017-05-27T10:19:08.684Z,999.66
2017-05-27T10:20:10.075Z,999.67
2017-05-27T10:21:11.450Z,999.58
2017-05-27T10:22:12.845Z,999.58
2017-05-27T10:23:14.220Z,999.58
2017-05-27T10:24:15.603Z,999.66
2017-05-27T10:25:17.038Z,999.61
2017-05-27T10:26:18.477Z,999.57
2017-05-27T10:27:19.847Z,999.53
2017-05-27T10:28:21.222Z,999.59
2017-05-27T10:29:22.605Z,999.57
2017-05-27T10:30:23.983Z,999.52
2017-05-27T10:31:25.363Z,999.51
2017-05-27T10:32:26.751Z,999.56
2017-05-27T10:33:28.166Z,999.52
2017-05-27T10:34:29.540Z,999.59
2017-05-27T10:35:30.924Z,999.58
2017-05-27T10:36:32.291Z,999.51
2017-05-27T10:37:33.711Z,999.45
2017-05-27T10:38:35.105Z,999.50
2017-05-27T10:39:36.480Z,999.40
2017-05-27T10:40:37.856Z,999.45
2017-05-27T10:41:39.254Z,999.51
2017-05-27T10:42:40.633Z,999.53
2017-05-27T10:43:42.003Z,999.46
2017-05-27T10:44:43.375Z,999.50
2017-05-27T10:45:44.757Z,999.49
2017-05-27T10:46:46.134Z,999.56
2017-05-27T10:47:47.511Z,999.47
2017-05-27T10:48:48.892Z,999.48
2017-05-27T10:49:50.269Z,999.46
2017-05-27T10:50:51.643Z,999.42
2017-05-27T10:51:53.024Z,999.41
2017-05-27T10:52:54.396Z,999.46
2017-05-27T10:53:55.832Z,999.41
2017-05-27T10:54:57.210Z,999.42
2017-05-27T10:55:58.576Z,999.51
2017-05-27T10:56:59.953Z,999.38
2017-05-27T10:58:01.322Z,999.41
2017-05-27T10:59:02.690Z,999.57
2017-05-27T11:00:04.088Z,999.51
2017-05-27T11:01:05.559Z,999.48
2017-05-27T11:02:06.936Z,999.46
2017-05-27T11:03:08.309Z,999.45
2017-05-27T11:04:09.696Z,999.37
2017-05-27T11:05:11.725Z,999.43
2017-05-27T11:06:13.099Z,999.41
2017-05-27T11:07:14.474Z,999.36
2017-05-27T11:08:15.852Z,999.41
2017-05-27T11:09:17.235Z,999.50
2017-05-27T11:10:18.608Z,999.37
2017-05-27T11:11:19.979Z,999.44
2017-05-27T11:12:21.349Z,999.39
2017-05-27T11:13:22.747Z,999.37
2017-05-27T11:14:24.120Z,999.44
2017-05-27T11:15:25.560Z,999.45
2017-05-27T11:16:26.935Z,999.40
2017-05-27T11:17:28.306Z,999.39
2017-05-27T11:18:30.507Z,999.44
2017-05-27T11:19:31.883Z,999.37
2017-05-27T11:20:33.265Z,999.38
2017-05-27T11:21:34.636Z,999.36
2017-05-27T11:22:36.011Z,999.31
2017-05-27T11:23:37.414Z,999.31
2017-05-27T11:24:38.805Z,999.31
2017-05-27T11:25:40.190Z,999.39
2017-05-27T11:26:41.565Z,999.38
2017-05-27T11:27:42.938Z,999.29
2017-05-27T11:28:44.344Z,999.28
2017-05-27T11:29:45.731Z,999.39
2017-05-27T11:30:47.096Z,999.33
2017-05-27T11:31:48.468Z,999.29
2017-05-27T11:32:49.851Z,999.29
2017-05-27T11:33:51.220Z,999.26
2017-05-27T11:34:52.591Z,999.34
2017-05-27T11:35:53.974Z,999.37
2017-05-27T11:36:55.346Z,999.39
2017-05-27T11:37:56.719Z,999.30
2017-05-27T11:38:58.125Z,999.24
2017-05-27T11:39:59.502Z,999.25
2017-05-27T11:41:00.879Z,999.27
2017-05-27T11:42:02.240Z,999.23
2017-05-27T11:43:03.620Z,999.24
2017-05-27T11:44:04.999Z,999.29
2017-05-27T11:45:06.377Z,999.27
2017-05-27T11:46:07.749Z,999.32
2017-05-27T11:47:09.136Z,999.31
2017-05-27T11:48:10.505Z,999.26
2017-05-27T11:49:11.877Z,999.26
2017-05-27T11:50:13.260Z,999.28
2017-05-27T11:51:14.633Z,999.30
2017-05-27T11:52:16.017Z,999.36
2017-05-27T11:53:17.416Z,999.31
2017-05-27T11:54:18.785Z,999.24
2017-05-27T11:55:20.209Z,999.29
2017-05-27T11:56:21.584Z,999.25
2017-05-27T11:57:22.970Z,999.28
2017-05-27T11:58:24.337Z,999.21
2017-05-27T11:59:25.720Z,999.13
2017-05-27T12:00:27.098Z,999.14
2017-05-27T12:01:28.473Z,999.17
2017-05-27T12:02:29.853Z,999.27
2017-05-27T12:03:31.231Z,999.20
2017-05-27T12:04:32.611Z,999.21
2017-05-27T12:05:34.010Z,999.23
2017-05-27T12:06:35.371Z,999.26
2017-05-27T12:07:36.743Z,999.28
2017-05-27T12:08:38.124Z,999.22
2017-05-27T12:09:39.492Z,999.22
2017-05-27T12:10:40.884Z,999.19
2017-05-27T12:11:42.255Z,999.16
2017-05-27T12:12:43.641Z,999.12
2017-05-27T12:13:45.015Z,999.16
2017-05-27T12:14:46.379Z,999.08
2017-05-27T12:15:47.774Z,999.14
2017-05-27T12:16:49.190Z,999.19
2017-05-27T12:17:50.568Z,999.20
2017-05-27T12:18:51.946Z,999.22
2017-05-27T12:19:53.334Z,999.23
2017-05-27T12:20:54.717Z,999.24
2017-05-27T12:21:56.092Z,999.26
2017-05-27T12:22:57.471Z,999.24
2017-05-27T12:23:58.839Z,999.20
2017-05-27T12:25:00.287Z,999.20
2017-05-27T12:26:02.219Z,999.19
2017-05-27T12:27:03.681Z,999.19
2017-05-27T12:28:05.089Z,999.20
2017-05-27T12:29:06.458Z,999.18
2017-05-27T12:30:07.838Z,999.17
2017-05-27T12:31:09.204Z,999.16
2017-05-27T12:32:10.578Z,999.16
2017-05-27T12:33:11.947Z,999.16
2017-05-27T12:34:13.321Z,999.17
2017-05-27T12:35:14.701Z,999.21
2017-05-27T12:36:16.074Z,999.16
2017-05-27T12:37:17.470Z,999.13
2017-05-27T12:38:18.850Z,999.10
2017-05-27T12:39:20.222Z,999.04
2017-05-27T12:40:21.695Z,999.06
2017-05-27T12:41:23.069Z,999.10
2017-05-27T12:42:24.443Z,999.04
2017-05-27T12:43:25.820Z,999.00
2017-05-27T12:44:27.195Z,998.99
2017-05-27T12:45:28.573Z,999.01
2017-05-27T12:46:29.942Z,999.09